createdAt,value
2023-11-15T00:00:54.241Z,1.09
2023-11-15T00:01:56.122Z,1.5
2023-11-15T00:02:58.234Z,1.27
2023-11-15T00:04:00.198Z,1.2
2023-11-15T00:05:01.250Z,1.32
2023-11-15T00:06:02.347Z,1.46
2023-11-15T00:07:05.001Z,0.7
2023-11-15T00:08:09.344Z,1.62
2023-11-15T00:09:12.157Z,1.76
2023-11-15T00:10:15.643Z,1.35
2023-11-15T00:11:17.598Z,1.44
2023-11-15T00:12:18.967Z,1.02
2023-11-15T00:13:23.801Z,1.61
2023-11-15T00:14:27.161Z,1.23
2023-11-15T00:15:32.285Z,0.99
2023-11-15T00:16:33.970Z,1.4
2023-11-15T00:17:38.787Z,1.75
2023-11-15T00:18:40.118Z,1.32
2023-11-15T00:19:44.664Z,1.78
2023-11-15T00:20:47.059Z,1.38
2023-11-15T00:21:49.344Z,2.11
2023-11-15T00:22:50.957Z,2.01
2023-11-15T00:23:53.407Z,1.17
2023-11-15T00:24:56.219Z,0.81
2023-11-15T00:25:57.106Z,2.64
2023-11-15T00:26:57.959Z,2.51
2023-11-15T00:27:59.191Z,3.4
2023-11-15T00:28:59.920Z,2.89
2023-11-15T00:30:01.200Z,2.95
2023-11-15T00:31:04.101Z,3.11
2023-11-15T00:32:04.923Z,2.74
2023-11-15T00:33:09.287Z,2.28
2023-11-15T00:34:12.155Z,1.69
2023-11-15T00:35:15.811Z,2.15
2023-11-15T00:36:16.952Z,2.55
2023-11-15T00:37:21.389Z,0.42
2023-11-15T00:38:23.421Z,1.67
2023-11-15T00:39:26.334Z,1.4
2023-11-15T00:40:30.640Z,1.39
2023-11-15T00:41:31.933Z,1.27
2023-11-15T00:42:34.279Z,0.9
2023-11-15T00:43:35.148Z,1.73
2023-11-15T00:44:37.009Z,0.6
2023-11-15T00:45:44.923Z,2.66
2023-11-15T00:46:46.345Z,1.48
2023-11-15T00:47:48.147Z,1.91
2023-11-15T00:48:49.160Z,0.47
2023-11-15T00:49:52.939Z,0.74
2023-11-15T00:50:54.182Z,0.7
2023-11-15T00:51:56.029Z,1.63
2023-11-15T00:52:57.329Z,0.6
2023-11-15T00:53:58.920Z,0.82
2023-11-15T00:55:01.031Z,0.41
2023-11-15T00:56:03.301Z,0.53
2023-11-15T00:57:10.337Z,0.25
2023-11-15T00:58:13.923Z,0.35
2023-11-15T00:59:17.162Z,0.7
2023-11-15T01:00:21.173Z,0.35
2023-11-15T01:01:22.740Z,0.84
2023-11-15T01:02:27.102Z,0.41
2023-11-15T01:03:28.562Z,0.28
2023-11-15T01:04:34.672Z,1.84
2023-11-15T01:05:36.140Z,0.98
2023-11-15T01:06:36.908Z,1.35
2023-11-15T01:07:37.906Z,0.42
2023-11-15T01:08:39.330Z,0.5
2023-11-15T01:09:39.899Z,0.65
2023-11-15T01:10:40.921Z,2.07
2023-11-15T01:11:42.279Z,0.96
2023-11-15T01:12:46.654Z,0.7
2023-11-15T01:13:49.556Z,1.91
2023-11-15T01:14:51.189Z,1.94
2023-11-15T01:15:52.369Z,2.08
2023-11-15T01:16:53.980Z,0.45
2023-11-15T01:17:55.238Z,1.86
2023-11-15T01:18:56.133Z,1.75
2023-11-15T01:19:58.104Z,0.5
2023-11-15T01:20:59.003Z,2.62
2023-11-15T01:22:00.252Z,1.22
2023-11-15T01:23:01.205Z,1.53
2023-11-15T01:24:02.235Z,1.53
2023-11-15T01:25:06.332Z,1.55
2023-11-15T01:26:10.325Z,0.82
2023-11-15T01:27:11.109Z,1.52
2023-11-15T01:28:14.471Z,1.54
2023-11-15T01:29:16.982Z,1.32
2023-11-15T01:30:18.944Z,2.24
2023-11-15T01:31:23.647Z,0.48
2023-11-15T01:32:25.003Z,0.45
2023-11-15T01:33:32.694Z,0.83
2023-11-15T01:34:34.960Z,1.1
2023-11-15T01:35:37.317Z,0.93
2023-11-15T01:36:38.016Z,0.95
2023-11-15T01:37:40.100Z,0.44
2023-11-15T01:38:43.337Z,0.68
2023-11-15T01:39:47.922Z,0.66
2023-11-15T01:40:51.172Z,0.35
2023-11-15T01:41:52.249Z,0.74
2023-11-15T01:42:52.908Z,0.2
2023-11-15T01:43:55.215Z,0.39
2023-11-15T01:44:57.159Z,0.18
2023-11-15T01:46:02.328Z,0.19
2023-11-15T01:47:04.147Z,0.28
2023-11-15T01:48:07.191Z,0.32
2023-11-15T01:49:08.182Z,0.25
2023-11-15T01:50:09.216Z,0.3
2023-11-15T01:51:11.269Z,0.09
2023-11-15T01:52:13.083Z,0.42
2023-11-15T01:53:16.683Z,0.15
2023-11-15T01:54:20.780Z,0.31
2023-11-15T01:55:22.983Z,0.11
2023-11-15T01:56:28.449Z,0.38
2023-11-15T01:57:38.913Z,0.11
2023-11-15T01:58:42.138Z,0.38
2023-11-15T01:59:44.515Z,0.52
2023-11-15T02:00:48.690Z,0.29
2023-11-15T02:01:53.340Z,0.44
2023-11-15T02:02:56.452Z,0.11
2023-11-15T02:03:58.297Z,0.22
2023-11-15T02:04:59.143Z,0.76
2023-11-15T02:06:00.024Z,0.3
2023-11-15T02:07:10.996Z,0.69
2023-11-15T02:08:16.397Z,0.38
2023-11-15T02:09:18.177Z,0
2023-11-15T02:10:19.292Z,0.14
2023-11-15T02:11:21.184Z,0.31
2023-11-15T02:12:27.565Z,0.5
2023-11-15T02:13:31.311Z,0.61
2023-11-15T02:14:34.285Z,1.06
2023-11-15T02:15:35.001Z,0.34
2023-11-15T02:16:37.306Z,0.31
2023-11-15T02:17:40.684Z,0.27
2023-11-15T02:18:43.225Z,0.32
2023-11-15T02:19:45.081Z,0.25
2023-11-15T02:20:46.539Z,1.32
2023-11-15T02:21:50.464Z,0.83
2023-11-15T02:22:56.786Z,0.99
2023-11-15T02:24:00.795Z,1.6
2023-11-15T02:25:02.990Z,0.77
2023-11-15T02:26:08.275Z,1.29
2023-11-15T02:27:13.910Z,0.51
2023-11-15T02:28:18.489Z,1.19
2023-11-15T02:29:28.061Z,0.29
2023-11-15T02:30:30.240Z,0.55
2023-11-15T02:31:34.018Z,0.71
2023-11-15T02:32:38.263Z,0.6
2023-11-15T02:36:54.107Z,0.73
2023-11-15T02:37:55.989Z,0.34
2023-11-15T02:39:02.195Z,0.81
2023-11-15T02:40:05.214Z,0.92
2023-11-15T02:41:09.333Z,0.7
2023-11-15T02:42:13.365Z,0.61
2023-11-15T02:43:16.213Z,0.51
2023-11-15T02:44:21.373Z,0.71
2023-11-15T02:45:25.332Z,0.96
2023-11-15T02:46:30.556Z,0.6
2023-11-15T02:47:32.245Z,0.7
2023-11-15T02:48:33.380Z,0.3
2023-11-15T02:49:38.143Z,0.61
2023-11-15T02:50:42.620Z,0.53
2023-11-15T02:51:49.155Z,0.42
2023-11-15T02:52:53.147Z,0.57
2023-11-15T02:53:58.005Z,0.86
2023-11-15T02:55:02.997Z,0.55
2023-11-15T02:56:03.967Z,0.9
2023-11-15T02:57:09.452Z,0.73
2023-11-15T02:58:12.248Z,0.82
2023-11-15T02:59:15.113Z,0.93
2023-11-15T03:00:19.864Z,0.83
2023-11-15T03:01:26.973Z,0.75
2023-11-15T03:02:32.521Z,0.77
2023-11-15T03:03:44.684Z,0.52
2023-11-15T03:04:50.221Z,0.47
2023-11-15T03:05:53.701Z,0.48
2023-11-15T03:06:57.853Z,0.55
2023-11-15T03:07:59.908Z,0.53
2023-11-15T03:09:05.236Z,0.52
2023-11-15T03:10:13.193Z,0.6
2023-11-15T03:11:16.581Z,0.49
2023-11-15T03:12:26.081Z,0.41
2023-11-15T03:13:31.171Z,0.42
2023-11-15T03:14:35.025Z,0.17
2023-11-15T03:15:39.436Z,0.27
2023-11-15T03:16:41.300Z,0.16
2023-11-15T03:17:45.391Z,0.17
2023-11-15T03:18:47.054Z,0.23
2023-11-15T03:19:47.969Z,0.37
2023-11-15T03:20:53.708Z,0.34
2023-11-15T03:21:56.233Z,0.82
2023-11-15T03:23:01.455Z,0.59
2023-11-15T03:24:07.176Z,0.68
2023-11-15T03:25:09.188Z,0.33
2023-11-15T03:26:11.016Z,0.5
2023-11-15T03:27:14.194Z,0.58
2023-11-15T03:28:18.844Z,0.8
2023-11-15T03:29:20.034Z,0.52
2023-11-15T03:30:25.066Z,0.42
2023-11-15T03:31:27.056Z,0.5
2023-11-15T03:32:37.313Z,0.81
2023-11-15T03:33:45.097Z,0.3
2023-11-15T03:34:49.499Z,0.48
2023-11-15T03:35:52.157Z,1.01
2023-11-15T03:36:54.191Z,0.4
2023-11-15T03:37:58.649Z,0.37
2023-11-15T03:39:03.451Z,0.38
2023-11-15T03:40:09.387Z,0.83
2023-11-15T03:41:13.000Z,0.69
2023-11-15T03:42:14.203Z,0.74
2023-11-15T03:43:19.600Z,0.53
2023-11-15T03:44:24.086Z,0.84
2023-11-15T03:45:27.612Z,1.07
2023-11-15T03:46:31.029Z,0.88
2023-11-15T03:47:36.243Z,1.38
2023-11-15T03:48:41.188Z,0.7
2023-11-15T03:49:43.582Z,1.59
2023-11-15T03:50:45.249Z,1.34
2023-11-15T03:51:47.282Z,1.08
2023-11-15T03:52:49.438Z,1.32
2023-11-15T03:53:56.945Z,1.78
2023-11-15T03:55:02.800Z,0.65
2023-11-15T03:56:08.215Z,0.89
2023-11-15T03:57:13.226Z,0.86
2023-11-15T03:58:18.009Z,1.28
2023-11-15T03:59:24.597Z,1.99
2023-11-15T04:00:30.413Z,1.78
2023-11-15T04:01:49.037Z,1.84
2023-11-15T04:02:45.271Z,1.65
2023-11-15T04:03:50.325Z,1.8
2023-11-15T04:05:00.316Z,1.64
2023-11-15T04:06:01.231Z,2.93
2023-11-15T04:07:03.456Z,1.95
2023-11-15T04:08:05.329Z,1.25
2023-11-15T04:09:06.120Z,1.62
2023-11-15T04:10:08.403Z,2.88
2023-11-15T04:11:12.536Z,2.79
2023-11-15T04:12:14.117Z,2.03
2023-11-15T04:13:15.529Z,2.33
2023-11-15T04:14:16.996Z,1.08
2023-11-15T04:15:22.720Z,1.16
2023-11-15T04:16:25.180Z,1.89
2023-11-15T04:17:26.343Z,2.17
2023-11-15T04:18:28.098Z,1.54
2023-11-15T04:19:29.417Z,0.93
2023-11-15T04:20:31.221Z,2.32
2023-11-15T04:21:34.412Z,2.02
2023-11-15T04:22:35.275Z,1.73
2023-11-15T04:23:36.277Z,1
2023-11-15T04:24:37.004Z,1.39
2023-11-15T04:25:40.157Z,0.53
2023-11-15T04:26:42.182Z,1.39
2023-11-15T04:27:44.160Z,1.04
2023-11-15T04:28:45.204Z,0.6
2023-11-15T04:29:50.904Z,0.29
2023-11-15T04:30:57.788Z,0.59
2023-11-15T04:31:59.261Z,0.26
2023-11-15T04:33:06.896Z,0.58
2023-11-15T04:34:12.274Z,0.44
2023-11-15T04:35:13.334Z,0.4
2023-11-15T04:36:15.418Z,0.27
2023-11-15T04:37:17.037Z,0.32
2023-11-15T04:38:30.516Z,0.42
2023-11-15T04:39:32.020Z,0.55
2023-11-15T04:40:33.036Z,0.32
2023-11-15T04:41:36.331Z,0.45
2023-11-15T04:42:37.213Z,0.31
2023-11-15T04:43:41.426Z,0.17
2023-11-15T04:44:46.204Z,0.21
2023-11-15T04:45:49.362Z,0.21
2023-11-15T04:46:51.214Z,0.18
2023-11-15T04:47:53.334Z,0.16
2023-11-15T04:48:55.149Z,0.19
2023-11-15T04:49:57.391Z,0.49
2023-11-15T04:50:59.581Z,0.63
2023-11-15T04:52:01.173Z,0.23
2023-11-15T04:53:03.415Z,0.18
2023-11-15T04:54:08.915Z,0.41
2023-11-15T04:55:10.827Z,0.37
2023-11-15T04:56:15.172Z,0.58
2023-11-15T04:57:16.041Z,0.37
2023-11-15T04:58:17.265Z,0.74
2023-11-15T04:59:19.164Z,1.25
2023-11-15T05:00:21.179Z,0.27
2023-11-15T05:01:22.371Z,0.37
2023-11-15T05:02:26.711Z,1.14
2023-11-15T05:03:32.163Z,0.24
2023-11-15T05:04:33.179Z,1.04
2023-11-15T05:05:37.984Z,0.09
2023-11-15T05:06:40.144Z,0.65
2023-11-15T05:07:42.046Z,0.41
2023-11-15T05:08:43.885Z,1.04
2023-11-15T05:09:45.024Z,0.95
2023-11-15T05:10:46.284Z,0.95
2023-11-15T05:11:47.100Z,1.09
2023-11-15T05:12:49.264Z,0.33
2023-11-15T05:13:51.081Z,1.1
2023-11-15T05:14:52.221Z,1.18
2023-11-15T05:15:53.202Z,0.98
2023-11-15T05:17:00.896Z,0.39
2023-11-15T05:18:02.332Z,0.61
2023-11-15T05:19:04.038Z,1.57
2023-11-15T05:20:05.198Z,1.21
2023-11-15T05:21:10.086Z,0.6
2023-11-15T05:22:14.513Z,1.5
2023-11-15T05:23:16.301Z,1.99
2023-11-15T05:24:18.170Z,1.36
2023-11-15T05:25:20.633Z,0.67
2023-11-15T05:26:22.390Z,1.79
2023-11-15T05:27:25.265Z,1.57
2023-11-15T05:28:27.703Z,0.9
2023-11-15T05:29:32.045Z,0.55
2023-11-15T05:30:38.952Z,1.06
2023-11-15T05:31:41.346Z,0.78
2023-11-15T05:32:44.163Z,0.82
2023-11-15T05:33:45.078Z,0.82
2023-11-15T05:34:46.307Z,1.13
2023-11-15T05:35:48.206Z,1.4
2023-11-15T05:36:50.390Z,1
2023-11-15T05:37:55.003Z,2.58
2023-11-15T05:38:58.719Z,1.37
2023-11-15T05:40:05.592Z,0.88
2023-11-15T05:41:07.057Z,1.04
2023-11-15T05:42:11.657Z,1.24
2023-11-15T05:43:13.064Z,2.34
2023-11-15T05:44:15.280Z,1.33
2023-11-15T05:45:17.038Z,1.68
2023-11-15T05:46:18.348Z,1.25
2023-11-15T05:47:19.270Z,0.98
2023-11-15T05:48:22.821Z,0.77
2023-11-15T05:49:24.067Z,1.94
2023-11-15T05:50:25.357Z,1.8
2023-11-15T05:51:27.168Z,2.11
2023-11-15T05:52:29.568Z,1.43
2023-11-15T05:53:32.746Z,1.31
2023-11-15T05:54:34.162Z,1.65
2023-11-15T05:55:35.115Z,0.64
2023-11-15T05:56:37.107Z,1.08
2023-11-15T05:57:39.208Z,0.99
2023-11-15T05:58:44.057Z,1
2023-11-15T05:59:46.610Z,0.65
2023-11-15T06:00:50.827Z,0.28
2023-11-15T06:01:53.184Z,0.37
2023-11-15T06:02:55.388Z,1.06
2023-11-15T06:03:59.375Z,0.48
2023-11-15T06:05:01.206Z,1
2023-11-15T06:06:02.648Z,0.82
2023-11-15T06:07:07.138Z,1.04
2023-11-15T06:08:10.449Z,0.68
2023-11-15T06:09:11.142Z,0.4
2023-11-15T06:10:12.395Z,0.63
2023-11-15T06:11:14.596Z,0.47
2023-11-15T06:12:17.617Z,0.61
2023-11-15T06:13:24.901Z,1.97
2023-11-15T06:14:30.241Z,0.57
2023-11-15T06:15:32.078Z,0.32
2023-11-15T06:16:36.207Z,0.43
2023-11-15T06:17:40.474Z,0.66
2023-11-15T06:18:44.099Z,0.62
2023-11-15T06:19:49.443Z,0.35
2023-11-15T06:20:49.750Z,1.66
2023-11-15T06:21:52.544Z,1.55
2023-11-15T06:22:53.269Z,0.65
2023-11-15T06:23:54.401Z,0.65
2023-11-15T06:24:56.317Z,1.01
2023-11-15T06:26:01.225Z,1
2023-11-15T06:27:05.916Z,0.21
2023-11-15T06:28:07.215Z,0.81
2023-11-15T06:29:10.385Z,1.62
2023-11-15T06:30:13.795Z,0.47
2023-11-15T06:31:16.076Z,0.69
2023-11-15T06:32:21.343Z,0.56
2023-11-15T06:33:23.539Z,0.65
2023-11-15T06:34:30.345Z,0.23
2023-11-15T06:35:34.990Z,0.5
2023-11-15T06:36:39.941Z,0.5
2023-11-15T06:37:42.322Z,0.88
2023-11-15T06:38:47.564Z,0.4
2023-11-15T06:39:56.937Z,0.71
2023-11-15T06:41:02.123Z,0.55
2023-11-15T06:42:07.474Z,0.44
2023-11-15T06:43:18.924Z,0.62
2023-11-15T06:44:22.732Z,0.84
2023-11-15T06:45:25.136Z,0.48
2023-11-15T06:46:30.637Z,1.2
2023-11-15T06:47:34.208Z,1.26
2023-11-15T06:48:39.403Z,0.52
2023-11-15T06:49:41.087Z,1.11
2023-11-15T06:50:48.419Z,2.57
2023-11-15T06:52:06.847Z,0.85
2023-11-15T06:53:10.243Z,0.74
2023-11-15T06:54:12.399Z,0.41
2023-11-15T06:55:13.305Z,0.51
2023-11-15T06:56:17.934Z,0.45
2023-11-15T06:57:19.210Z,0.3
2023-11-15T06:58:25.027Z,0.28
2023-11-15T06:59:32.388Z,0.28
2023-11-15T07:00:35.323Z,0.41
2023-11-15T07:01:38.297Z,1.16
2023-11-15T07:02:41.793Z,0.39
2023-11-15T07:03:44.266Z,0.21
2023-11-15T07:04:46.115Z,0.58
2023-11-15T07:05:50.223Z,0.3
2023-11-15T07:06:52.307Z,0.48
2023-11-15T07:07:57.245Z,0.68
2023-11-15T07:08:58.406Z,0.24
2023-11-15T07:09:59.681Z,0.65
2023-11-15T07:11:01.343Z,0.9
2023-11-15T07:12:06.054Z,0.66
2023-11-15T07:13:08.178Z,0.16
2023-11-15T07:14:12.362Z,0.94
2023-11-15T07:15:13.414Z,0.65
2023-11-15T07:16:17.839Z,0.97
2023-11-15T07:17:20.238Z,1.11
2023-11-15T07:18:23.272Z,0.65
2023-11-15T07:19:24.735Z,0.63
2023-11-15T07:20:29.508Z,0.64
2023-11-15T07:21:32.960Z,0.22
2023-11-15T07:22:36.745Z,0.58
2023-11-15T07:23:38.220Z,0.18
2023-11-15T07:24:42.866Z,0.18
2023-11-15T07:25:45.171Z,0.54
2023-11-15T07:26:47.405Z,0.31
2023-11-15T07:27:51.871Z,0.43
2023-11-15T07:28:53.406Z,0.38
2023-11-15T07:29:58.095Z,0.44
2023-11-15T07:30:58.444Z,0.79
2023-11-15T07:31:59.391Z,0.27
2023-11-15T07:33:06.622Z,0.55
2023-11-15T07:34:08.462Z,0.36
2023-11-15T07:35:11.291Z,0.27
2023-11-15T07:36:16.327Z,0.58
2023-11-15T07:37:18.324Z,0.28
2023-11-15T07:38:21.843Z,0.4
2023-11-15T07:39:23.539Z,0.3
2023-11-15T07:40:26.487Z,0.72
2023-11-15T07:41:32.821Z,0.67
2023-11-15T07:42:38.988Z,0.17
2023-11-15T07:43:40.315Z,0.43
2023-11-15T07:44:41.124Z,0.72
2023-11-15T07:45:45.119Z,0.39
2023-11-15T07:46:46.181Z,0.6
2023-11-15T07:47:47.953Z,0.46
2023-11-15T07:48:51.635Z,0.34
2023-11-15T07:49:52.601Z,0.58
2023-11-15T07:50:57.763Z,0.84
2023-11-15T07:52:03.238Z,0.16
2023-11-15T07:53:08.308Z,0.27
2023-11-15T07:54:14.049Z,0.27
2023-11-15T07:55:23.240Z,0.45
2023-11-15T07:56:24.835Z,0.5
2023-11-15T07:57:34.740Z,0.13
2023-11-15T07:58:38.308Z,0.61
2023-11-15T07:59:40.519Z,0.65
2023-11-15T08:00:41.475Z,0.23
2023-11-15T08:01:47.922Z,0.32
2023-11-15T08:02:48.851Z,0.3
2023-11-15T08:03:51.485Z,0.1
2023-11-15T08:04:53.473Z,0.38
2023-11-15T08:05:58.817Z,0.35
2023-11-15T08:07:00.457Z,0.55
2023-11-15T08:08:01.324Z,0.05
2023-11-15T08:09:02.246Z,0.29
2023-11-15T08:10:06.229Z,0.37
2023-11-15T08:11:08.260Z,0.45
2023-11-15T08:12:16.194Z,0.32
2023-11-15T08:13:20.281Z,0.31
2023-11-15T08:14:25.138Z,0.26
2023-11-15T08:15:26.471Z,0.23
2023-11-15T08:16:29.493Z,0.48
2023-11-15T08:17:33.436Z,0.28
2023-11-15T08:18:35.456Z,0.33
2023-11-15T08:19:37.139Z,0.12
2023-11-15T08:20:44.408Z,0.52
2023-11-15T08:21:45.232Z,0.12
2023-11-15T08:22:46.371Z,0.21
2023-11-15T08:23:47.607Z,0.42
2023-11-15T08:24:51.820Z,0.55
2023-11-15T08:25:54.374Z,0.54
2023-11-15T08:26:56.671Z,0.35
2023-11-15T08:27:59.666Z,0.28
2023-11-15T08:28:59.203Z,0.18
2023-11-15T08:30:02.700Z,1.55
2023-11-15T08:31:06.968Z,1.48
2023-11-15T08:32:08.219Z,0.52
2023-11-15T08:33:14.819Z,0.45
2023-11-15T08:34:20.079Z,0.71
2023-11-15T08:35:19.218Z,0.37
2023-11-15T08:36:20.391Z,0.81
2023-11-15T08:37:22.669Z,0.55
2023-11-15T08:38:24.285Z,0.64
2023-11-15T08:39:29.450Z,0.78
2023-11-15T08:40:31.354Z,0.73
2023-11-15T08:41:33.673Z,0.69
2023-11-15T08:42:35.489Z,0.6
2023-11-15T08:43:37.567Z,0.71
2023-11-15T08:44:39.431Z,0.31
2023-11-15T08:45:50.620Z,0.4
2023-11-15T08:46:54.489Z,0.43
2023-11-15T08:48:03.652Z,0.61
2023-11-15T08:49:05.344Z,0.69
2023-11-15T08:50:06.461Z,1.02
2023-11-15T08:51:07.827Z,0.21
2023-11-15T08:52:09.530Z,0.36
2023-11-15T08:53:17.865Z,0.11
2023-11-15T08:54:19.193Z,0.19
2023-11-15T08:55:23.007Z,0.41
2023-11-15T08:56:24.444Z,0.17
2023-11-15T08:57:29.463Z,1.02
2023-11-15T08:58:30.506Z,0.46
2023-11-15T08:59:31.284Z,0.44
2023-11-15T09:00:33.386Z,1.16
2023-11-15T09:01:35.725Z,0.67
2023-11-15T09:02:37.584Z,0.47
2023-11-15T09:03:42.902Z,0.74
2023-11-15T09:04:45.476Z,0.71
2023-11-15T09:05:46.548Z,0.33
2023-11-15T09:06:47.279Z,0.43
2023-11-15T09:07:51.988Z,0.85
2023-11-15T09:08:53.203Z,0.54
2023-11-15T09:09:54.254Z,0.22
2023-11-15T09:10:55.219Z,0.37
2023-11-15T09:12:00.080Z,0.22
2023-11-15T09:13:01.334Z,0.6
2023-11-15T09:14:03.510Z,1.41
2023-11-15T09:15:05.817Z,0.41
2023-11-15T09:16:11.596Z,0.23
2023-11-15T09:17:12.493Z,0.38
2023-11-15T09:18:13.522Z,0.62
2023-11-15T09:19:17.793Z,0.35
2023-11-15T09:20:19.746Z,0.45
2023-11-15T09:21:22.276Z,1.6
2023-11-15T09:22:23.260Z,0.53
2023-11-15T09:23:25.472Z,0.48
2023-11-15T09:24:25.289Z,0.83
2023-11-15T09:25:29.183Z,1.47
2023-11-15T09:26:30.208Z,0.59
2023-11-15T09:27:31.255Z,0.68
2023-11-15T09:28:32.256Z,0.17
2023-11-15T09:29:37.201Z,0.17
2023-11-15T09:30:38.230Z,0.77
2023-11-15T09:31:39.809Z,0.22
2023-11-15T09:32:41.409Z,1.25
2023-11-15T09:33:46.541Z,0.5
2023-11-15T09:34:50.393Z,0.51
2023-11-15T09:35:54.651Z,0.54
2023-11-15T09:36:53.553Z,0.23
2023-11-15T09:37:57.238Z,2.07
2023-11-15T09:38:58.329Z,0.92
2023-11-15T09:39:59.281Z,0.27
2023-11-15T09:41:03.016Z,0.85
2023-11-15T09:42:04.485Z,0.23
2023-11-15T09:43:06.601Z,0.36
2023-11-15T09:44:12.474Z,0.58
2023-11-15T09:45:14.254Z,0.38
2023-11-15T09:46:15.904Z,0.21
2023-11-15T09:47:17.590Z,0.55
2023-11-15T09:48:19.835Z,0.16
2023-11-15T09:49:21.508Z,0.27
2023-11-15T09:50:26.547Z,0.28
2023-11-15T09:51:28.273Z,0.28
2023-11-15T09:52:33.221Z,0.5
2023-11-15T09:53:34.684Z,0.22
2023-11-15T09:54:35.377Z,0.16
2023-11-15T09:55:37.982Z,0.19
2023-11-15T09:56:42.249Z,0.69
2023-11-15T09:57:43.520Z,0.95
2023-11-15T09:58:44.347Z,0.76
2023-11-15T09:59:52.757Z,0.87
2023-11-15T10:00:50.838Z,0.42
2023-11-15T10:01:53.454Z,0.37
2023-11-15T10:02:57.627Z,1.06
2023-11-15T10:03:59.372Z,0.5
2023-11-15T10:05:04.074Z,0.33
2023-11-15T10:06:05.681Z,0.35
2023-11-15T10:07:07.372Z,0.21
2023-11-15T10:08:12.204Z,0.12
2023-11-15T10:09:14.278Z,0.23
2023-11-15T10:10:16.551Z,0.52
2023-11-15T10:11:20.242Z,0.41
2023-11-15T10:12:21.280Z,0.4
2023-11-15T10:13:24.963Z,0.76
2023-11-15T10:14:26.293Z,0.68
2023-11-15T10:15:27.365Z,0.81
2023-11-15T10:16:29.613Z,0.49
2023-11-15T10:17:34.314Z,0.38
2023-11-15T10:18:39.161Z,0.53
2023-11-15T10:19:40.695Z,0.13
2023-11-15T10:20:42.864Z,0.67
2023-11-15T10:21:46.264Z,0.41
2023-11-15T10:22:58.672Z,0.77
2023-11-15T10:24:05.247Z,0.54
2023-11-15T10:25:07.719Z,0.51
2023-11-15T10:26:10.646Z,0.27
2023-11-15T10:27:23.871Z,0.58
2023-11-15T10:28:28.179Z,0.63
2023-11-15T10:29:33.306Z,0.29
2023-11-15T10:30:34.250Z,0.35
2023-11-15T10:31:35.257Z,0.2
2023-11-15T10:32:36.931Z,0.84
2023-11-15T10:33:41.220Z,0.94
2023-11-15T10:34:43.636Z,0.57
2023-11-15T10:35:50.884Z,1.14
2023-11-15T10:36:54.127Z,0.33
2023-11-15T10:37:53.826Z,0.56
2023-11-15T10:38:55.513Z,0.71
2023-11-15T10:39:57.612Z,0.86
2023-11-15T10:40:58.359Z,1.24
2023-11-15T10:41:59.326Z,0.8
2023-11-15T10:43:04.132Z,0.7
2023-11-15T10:44:05.496Z,0.98
2023-11-15T10:45:07.719Z,0.73
2023-11-15T10:46:13.207Z,0.12
2023-11-15T10:47:16.162Z,0.7
2023-11-15T10:48:20.056Z,0.77
2023-11-15T10:49:20.714Z,0.76
2023-11-15T10:50:22.680Z,1.04
2023-11-15T10:51:26.377Z,1
2023-11-15T10:52:29.102Z,1.56
2023-11-15T10:53:33.508Z,0.58
2023-11-15T10:54:39.162Z,0.33
2023-11-15T10:55:45.034Z,0.84
2023-11-15T10:56:56.870Z,0.24
2023-11-15T10:58:04.156Z,1.16
2023-11-15T10:59:09.121Z,0.73
2023-11-15T11:00:14.904Z,0.62
2023-11-15T11:01:16.417Z,1.38
2023-11-15T11:02:18.634Z,1.13
2023-11-15T11:03:22.996Z,0.81
2023-11-15T11:04:26.138Z,0.61
2023-11-15T11:05:32.663Z,0.62
2023-11-15T11:06:37.199Z,0.62
2023-11-15T11:07:39.855Z,0.45
2023-11-15T11:08:41.710Z,0.27
2023-11-15T11:09:43.665Z,0.1
2023-11-15T11:10:48.149Z,0.08
2023-11-15T11:11:50.516Z,0.89
2023-11-15T11:12:52.376Z,0.4
2023-11-15T11:13:53.748Z,0.49
2023-11-15T11:14:55.541Z,0.42
2023-11-15T11:15:57.372Z,0.24
2023-11-15T11:16:59.627Z,0.46
2023-11-15T11:18:03.086Z,0.25
2023-11-15T11:19:07.434Z,0.25
2023-11-15T11:20:10.731Z,0.75
2023-11-15T11:21:15.890Z,0.6
2023-11-15T11:22:22.857Z,0.52
2023-11-15T11:23:24.355Z,0.42
2023-11-15T11:24:25.518Z,0.82
2023-11-15T11:25:29.844Z,0.61
2023-11-15T11:26:32.871Z,0.4
2023-11-15T11:27:34.507Z,0.87
2023-11-15T11:28:35.293Z,0.19
2023-11-15T11:29:36.539Z,0.21
2023-11-15T11:30:38.362Z,0.27
2023-11-15T11:31:39.335Z,0.55
2023-11-15T11:32:44.567Z,0.43
2023-11-15T11:33:47.915Z,0.38
2023-11-15T11:34:50.757Z,1.13
2023-11-15T11:35:52.608Z,0.67
2023-11-15T11:36:57.163Z,0.17
2023-11-15T11:37:58.996Z,0.7
2023-11-15T11:39:00.425Z,0.18
2023-11-15T11:40:02.353Z,0.36
2023-11-15T11:41:03.718Z,0.42
2023-11-15T11:42:05.365Z,0.58
2023-11-15T11:43:06.499Z,0.58
2023-11-15T11:44:07.690Z,0.23
2023-11-15T11:45:12.199Z,0.54
2023-11-15T11:46:14.843Z,0.49
2023-11-15T11:47:18.394Z,0.73
2023-11-15T11:48:22.210Z,0.5
2023-11-15T11:49:23.280Z,0.4
2023-11-15T11:50:31.234Z,0.19
2023-11-15T11:51:33.780Z,0.64
2023-11-15T11:52:35.672Z,0.24
2023-11-15T11:53:37.260Z,0.22
2023-11-15T11:54:39.445Z,0.22
2023-11-15T11:55:40.261Z,0.64
2023-11-15T11:56:41.507Z,0.27
2023-11-15T11:57:43.292Z,0.62
2023-11-15T11:58:44.433Z,0.59
2023-11-15T11:59:45.302Z,0.46
2023-11-15T12:00:53.241Z,0.31
2023-11-15T12:01:55.662Z,0.57
2023-11-15T12:03:03.088Z,0.24
2023-11-15T12:04:00.448Z,0.22
2023-11-15T12:05:01.313Z,0.77
2023-11-15T12:06:02.396Z,0.23
2023-11-15T12:07:03.483Z,0.7
2023-11-15T12:08:05.375Z,0.7
2023-11-15T12:09:07.518Z,0.3
2023-11-15T12:10:08.291Z,0.3
2023-11-15T12:11:12.307Z,0.82
2023-11-15T12:12:13.412Z,0.81
2023-11-15T12:13:14.308Z,0.48
2023-11-15T12:14:16.614Z,0.62
2023-11-15T12:15:18.488Z,0.46
2023-11-15T12:16:22.676Z,0.32
2023-11-15T12:17:28.159Z,0.68
2023-11-15T12:18:32.621Z,0.16
2023-11-15T12:19:37.496Z,0.58
2023-11-15T12:20:38.342Z,0.7
2023-11-15T12:21:42.617Z,0.78
2023-11-15T12:22:44.311Z,0.54
2023-11-15T12:23:45.522Z,0.24
2023-11-15T12:24:48.495Z,0.49
2023-11-15T12:25:50.596Z,0.39
2023-11-15T12:26:54.292Z,0.7
2023-11-15T12:27:55.496Z,0.26
2023-11-15T12:28:57.338Z,0.36
2023-11-15T12:29:59.518Z,0.44
2023-11-15T12:31:02.015Z,0.57
2023-11-15T12:32:03.436Z,0.18
2023-11-15T12:33:04.467Z,0.37
2023-11-15T12:34:06.323Z,0.7
2023-11-15T12:35:07.509Z,0.39
2023-11-15T12:36:08.533Z,0.91
2023-11-15T12:37:10.527Z,0.47
2023-11-15T12:38:12.542Z,0.84
2023-11-15T12:39:15.803Z,1.21
2023-11-15T12:40:17.695Z,0.93
2023-11-15T12:41:20.493Z,1
2023-11-15T12:42:21.612Z,0.63
2023-11-15T12:43:24.934Z,0.69
2023-11-15T12:44:26.452Z,0.17
2023-11-15T12:45:27.416Z,1.13
2023-11-15T12:46:29.607Z,0.61
2023-11-15T12:47:37.376Z,0.45
2023-11-15T12:48:42.126Z,0.35
2023-11-15T12:49:43.393Z,0.44
2023-11-15T12:50:44.754Z,0.41
2023-11-15T12:51:50.441Z,0.78
2023-11-15T12:52:53.147Z,0.93
2023-11-15T12:53:54.478Z,0.75
2023-11-15T12:54:58.303Z,0.56
2023-11-15T12:56:01.759Z,0.7
2023-11-15T12:57:05.438Z,0.23
2023-11-15T12:58:07.345Z,0.1
2023-11-15T12:59:09.517Z,0.19
2023-11-15T13:00:10.542Z,0.51
2023-11-15T13:01:11.390Z,0.15
2023-11-15T13:02:16.774Z,0.45
2023-11-15T13:03:19.861Z,0.44
2023-11-15T13:04:22.875Z,0.69
2023-11-15T13:05:27.311Z,0.1
2023-11-15T13:06:30.837Z,0.67
2023-11-15T13:07:31.370Z,1
2023-11-15T13:08:34.392Z,0.21
2023-11-15T13:09:43.470Z,0.21
2023-11-15T13:10:46.541Z,0.92
2023-11-15T13:11:48.567Z,0.25
2023-11-15T13:12:51.874Z,0.38
2023-11-15T13:14:01.229Z,0.4
2023-11-15T13:15:07.512Z,0.47
2023-11-15T13:16:11.238Z,0.26
2023-11-15T13:17:15.110Z,0.92
2023-11-15T13:18:17.479Z,0.52
2023-11-15T13:19:18.382Z,0.58
2023-11-15T13:20:19.520Z,0.33
2023-11-15T13:21:21.948Z,0.13
2023-11-15T13:22:23.809Z,0.35
2023-11-15T13:23:25.324Z,0.5
2023-11-15T13:24:28.273Z,0.28
2023-11-15T13:25:30.607Z,0.19
2023-11-15T13:26:31.635Z,0.27
2023-11-15T13:27:33.595Z,0.8
2023-11-15T13:28:35.579Z,0.54
2023-11-15T13:29:37.497Z,0.23
2023-11-15T13:30:38.859Z,0.33
2023-11-15T13:31:40.288Z,0.21
2023-11-15T13:32:44.693Z,0.15
2023-11-15T13:33:46.780Z,0.69
2023-11-15T13:34:50.076Z,0.88
2023-11-15T13:35:53.402Z,0.4
2023-11-15T13:36:55.481Z,0.2
2023-11-15T13:37:56.359Z,0.75
2023-11-15T13:38:58.541Z,0.91
2023-11-15T13:40:01.356Z,0.28
2023-11-15T13:41:03.699Z,0.55
2023-11-15T13:42:05.431Z,0.42
2023-11-15T13:43:07.507Z,0.28
2023-11-15T13:44:08.463Z,0.19
2023-11-15T13:45:09.759Z,0.3
2023-11-15T13:46:12.566Z,0.64
2023-11-15T13:47:14.550Z,0.17
2023-11-15T13:48:18.574Z,0.13
2023-11-15T13:49:20.044Z,0.55
2023-11-15T13:50:21.807Z,0.47
2023-11-15T13:51:24.087Z,0.63
2023-11-15T13:52:25.348Z,0.64
2023-11-15T13:53:26.349Z,0.5
2023-11-15T13:54:28.957Z,0.14
2023-11-15T13:55:30.358Z,0.43
2023-11-15T13:56:32.338Z,0.71
2023-11-15T13:57:33.449Z,0.5
2023-11-15T13:58:34.358Z,0.7
2023-11-15T13:59:35.364Z,0.24
2023-11-15T14:00:37.671Z,0.66
2023-11-15T14:01:38.418Z,0.29
2023-11-15T14:02:43.200Z,0.34
2023-11-15T14:03:50.718Z,0.25
2023-11-15T14:04:51.575Z,0.18
2023-11-15T14:05:55.268Z,0.34
2023-11-15T14:06:58.692Z,0.15